sensor_id;sensor_type;location;lat;lon;timestamp;P1;durP1;ratioP1;P2;durP2;ratioP2
38220;SDS011;24023;51.280;7.148;2023-08-30T00:00:12;7.4;;;6.6;;
38220;SDS011;24023;51.280;7.148;2023-08-30T00:05:05;7.4;;;6.6;;
38220;SDS011;24023;51.280;7.148;2023-08-30T00:10:07;7.3;;;6.6;;
38220;SDS011;24023;51.280;7.148;2023-08-30T00:15:07;7.3;;;6.6;;
38220;SDS011;24023;51.280;7.148;2023-08-30T00:20:07;7.8;;;7.0;;
38220;SDS011;24023;51.280;7.148;2023-08-30T00:25:06;7.8;;;7.0;;
38220;SDS011;24023;51.280;7.148;2023-08-30T00:30:09;7.8;;;7.0;;
38220;SDS011;24023;51.280;7.148;2023-08-30T00:35:06;8.8;;;7.9;;
38220;SDS011;24023;51.280;7.148;2023-08-30T00:40:07;8.8;;;7.9;;
38220;SDS011;24023;51.280;7.148;2023-08-30T00:45:08;9.6;;;8.7;;
38220;SDS011;24023;51.280;7.148;2023-08-30T00:50:08;9.6;;;8.7;;
38220;SDS011;24023;51.280;7.148;2023-08-30T00:55:05;9.6;;;8.7;;
38220;SDS011;24023;51.280;7.148;2023-08-30T01:00:11;9.8;;;8.8;;
38220;SDS011;24023;51.280;7.148;2023-08-30T01:05:06;7.7;;;7.0;;
38220;SDS011;24023;51.280;7.148;2023-08-30T01:10:08;7.7;;;7.0;;
38220;SDS011;24023;51.280;7.148;2023-08-30T01:15:08;7.7;;;7.0;;
38220;SDS011;24023;51.280;7.148;2023-08-30T01:20:08;7.5;;;6.7;;
38220;SDS011;24023;51.280;7.148;2023-08-30T01:25:11;7.5;;;6.7;;
38220;SDS011;24023;51.280;7.148;2023-08-30T01:30:10;8.0;;;7.2;;
38220;SDS011;24023;51.280;7.148;2023-08-30T01:35:06;8.0;;;7.2;;
38220;SDS011;24023;51.280;7.148;2023-08-30T01:40:08;8.0;;;7.2;;
38220;SDS011;24023;51.280;7.148;2023-08-30T01:45:08;8.2;;;7.4;;
38220;SDS011;24023;51.280;7.148;2023-08-30T01:50:07;8.2;;;7.4;;
38220;SDS011;24023;51.280;7.148;2023-08-30T01:55:07;11.7;;;10.6;;
38220;SDS011;24023;51.280;7.148;2023-08-30T02:00:12;11.7;;;10.6;;
38220;SDS011;24023;51.280;7.148;2023-08-30T02:05:05;9.3;;;8.4;;
38220;SDS011;24023;51.280;7.148;2023-08-30T02:10:08;9.3;;;8.4;;
38220;SDS011;24023;51.280;7.148;2023-08-30T02:15:07;9.3;;;8.4;;
38220;SDS011;24023;51.280;7.148;2023-08-30T02:20:07;9.3;;;8.5;;
38220;SDS011;24023;51.280;7.148;2023-08-30T02:25:05;12.6;;;11.3;;
38220;SDS011;24023;51.280;7.148;2023-08-30T02:30:09;12.6;;;11.3;;
38220;SDS011;24023;51.280;7.148;2023-08-30T02:35:05;12.6;;;11.3;;
38220;SDS011;24023;51.280;7.148;2023-08-30T02:40:07;13.1;;;11.9;;
38220;SDS011;24023;51.280;7.148;2023-08-30T02:45:10;13.1;;;11.9;;
38220;SDS011;24023;51.280;7.148;2023-08-30T02:50:07;13.8;;;12.4;;
38220;SDS011;24023;51.280;7.148;2023-08-30T02:55:06;13.8;;;12.4;;
38220;SDS011;24023;51.280;7.148;2023-08-30T03:00:13;13.8;;;12.4;;
38220;SDS011;24023;51.280;7.148;2023-08-30T03:05:05;14.2;;;12.9;;
38220;SDS011;24023;51.280;7.148;2023-08-30T03:10:07;14.2;;;12.9;;
38220;SDS011;24023;51.280;7.148;2023-08-30T03:15:07;14.9;;;13.5;;
38220;SDS011;24023;51.280;7.148;2023-08-30T03:20:07;14.9;;;13.5;;
38220;SDS011;24023;51.280;7.148;2023-08-30T03:25:06;14.5;;;13.0;;
38220;SDS011;24023;51.280;7.148;2023-08-30T03:30:09;14.5;;;13.0;;
38220;SDS011;24023;51.280;7.148;2023-08-30T03:35:06;14.5;;;13.0;;
38220;SDS011;24023;51.280;7.148;2023-08-30T03:40:07;13.7;;;12.4;;
38220;SDS011;24023;51.280;7.148;2023-08-30T03:45:08;13.7;;;12.4;;
38220;SDS011;24023;51.280;7.148;2023-08-30T03:50:07;14.6;;;13.2;;
38220;SDS011;24023;51.280;7.148;2023-08-30T03:55:06;14.6;;;13.2;;
38220;SDS011;24023;51.280;7.148;2023-08-30T04:00:13;14.6;;;13.2;;
38220;SDS011;24023;51.280;7.148;2023-08-30T04:05:09;13.4;;;12.2;;
38220;SDS011;24023;51.280;7.148;2023-08-30T04:10:07;13.4;;;12.2;;
38220;SDS011;24023;51.280;7.148;2023-08-30T04:15:07;13.6;;;12.3;;
38220;SDS011;24023;51.280;7.148;2023-08-30T04:20:07;13.6;;;12.3;;
38220;SDS011;24023;51.280;7.148;2023-08-30T04:25:09;13.6;;;12.3;;
38220;SDS011;24023;51.280;7.148;2023-08-30T04:30:10;12.9;;;11.7;;
38220;SDS011;24023;51.280;7.148;2023-08-30T04:35:06;12.9;;;11.7;;
38220;SDS011;24023;51.280;7.148;2023-08-30T04:40:08;14.3;;;12.9;;
38220;SDS011;24023;51.280;7.148;2023-08-30T04:45:10;14.3;;;12.9;;
38220;SDS011;24023;51.280;7.148;2023-08-30T04:50:07;14.3;;;12.9;;
38220;SDS011;24023;51.280;7.148;2023-08-30T04:55:06;14.0;;;12.7;;
38220;SDS011;24023;51.280;7.148;2023-08-30T05:00:12;14.0;;;12.7;;
38220;SDS011;24023;51.280;7.148;2023-08-30T05:05:07;15.3;;;13.7;;
38220;SDS011;24023;51.280;7.148;2023-08-30T05:10:07;15.3;;;13.7;;
38220;SDS011;24023;51.280;7.148;2023-08-30T05:15:07;15.5;;;14.0;;
38220;SDS011;24023;51.280;7.148;2023-08-30T05:20:07;15.5;;;14.0;;
38220;SDS011;24023;51.280;7.148;2023-08-30T05:25:06;17.3;;;15.7;;
38220;SDS011;24023;51.280;7.148;2023-08-30T05:30:09;17.3;;;15.7;;
38220;SDS011;24023;51.280;7.148;2023-08-30T05:35:05;17.3;;;15.7;;
38220;SDS011;24023;51.280;7.148;2023-08-30T05:40:08;17.2;;;15.6;;
38220;SDS011;24023;51.280;7.148;2023-08-30T05:45:09;17.2;;;15.6;;
38220;SDS011;24023;51.280;7.148;2023-08-30T05:50:08;18.2;;;16.4;;
38220;SDS011;24023;51.280;7.148;2023-08-30T05:55:05;18.2;;;16.4;;
38220;SDS011;24023;51.280;7.148;2023-08-30T06:00:13;18.2;;;16.4;;
38220;SDS011;24023;51.280;7.148;2023-08-30T06:05:05;15.4;;;13.9;;
38220;SDS011;24023;51.280;7.148;2023-08-30T06:10:08;15.4;;;13.9;;
38220;SDS011;24023;51.280;7.148;2023-08-30T06:15:07;17.2;;;15.6;;
38220;SDS011;24023;51.280;7.148;2023-08-30T06:20:07;17.2;;;15.6;;
38220;SDS011;24023;51.280;7.148;2023-08-30T06:25:07;17.2;;;15.6;;
38220;SDS011;24023;51.280;7.148;2023-08-30T06:30:09;17.7;;;15.9;;
38220;SDS011;24023;51.280;7.148;2023-08-30T06:35:06;17.7;;;15.9;;
38220;SDS011;24023;51.280;7.148;2023-08-30T06:40:08;17.1;;;15.4;;
38220;SDS011;24023;51.280;7.148;2023-08-30T06:45:09;17.1;;;15.4;;
38220;SDS011;24023;51.280;7.148;2023-08-30T06:50:09;17.1;;;15.4;;
38220;SDS011;24023;51.280;7.148;2023-08-30T06:55:06;16.2;;;14.5;;
38220;SDS011;24023;51.280;7.148;2023-08-30T07:00:12;16.2;;;14.5;;
38220;SDS011;24023;51.280;7.148;2023-08-30T07:05:06;12.3;;;11.0;;
38220;SDS011;24023;51.280;7.148;2023-08-30T07:10:07;12.3;;;11.0;;
38220;SDS011;24023;51.280;7.148;2023-08-30T07:15:07;10.7;;;9.6;;
38220;SDS011;24023;51.280;7.148;2023-08-30T07:20:09;10.7;;;9.6;;
38220;SDS011;24023;51.280;7.148;2023-08-30T07:25:06;10.7;;;9.6;;
38220;SDS011;24023;51.280;7.148;2023-08-30T07:30:09;9.3;;;8.4;;
38220;SDS011;24023;51.280;7.148;2023-08-30T07:35:05;7.4;;;6.7;;
38220;SDS011;24023;51.280;7.148;2023-08-30T07:40:07;7.4;;;6.7;;
38220;SDS011;24023;51.280;7.148;2023-08-30T07:45:09;7.4;;;6.7;;
38220;SDS011;24023;51.280;7.148;2023-08-30T07:50:08;7.0;;;5.6;;
38220;SDS011;24023;51.280;7.148;2023-08-30T07:55:05;7.0;;;5.6;;
38220;SDS011;24023;51.280;7.148;2023-08-30T08:00:12;6.8;;;5.2;;
38220;SDS011;24023;51.280;7.148;2023-08-30T08:05:06;6.8;;;5.2;;
38220;SDS011;24023;51.280;7.148;2023-08-30T08:10:07;6.8;;;5.2;;
38220;SDS011;24023;51.280;7.148;2023-08-30T08:15:07;6.4;;;4.7;;
38220;SDS011;24023;51.280;7.148;2023-08-30T08:20:07;6.4;;;4.7;;
38220;SDS011;24023;51.280;7.148;2023-08-30T08:25:06;4.9;;;3.8;;
38220;SDS011;24023;51.280;7.148;2023-08-30T08:30:10;4.9;;;3.8;;
38220;SDS011;24023;51.280;7.148;2023-08-30T08:35:05;4.2;;;3.0;;
38220;SDS011;24023;51.280;7.148;2023-08-30T08:40:09;4.2;;;3.0;;
38220;SDS011;24023;51.280;7.148;2023-08-30T08:45:09;4.2;;;3.0;;
38220;SDS011;24023;51.280;7.148;2023-08-30T08:50:08;5.6;;;3.9;;
38220;SDS011;24023;51.280;7.148;2023-08-30T08:55:05;5.6;;;3.9;;
38220;SDS011;24023;51.280;7.148;2023-08-30T09:00:12;4.8;;;3.6;;
38220;SDS011;24023;51.280;7.148;2023-08-30T09:05:05;4.8;;;3.6;;
38220;SDS011;24023;51.280;7.148;2023-08-30T09:10:07;4.8;;;3.6;;
38220;SDS011;24023;51.280;7.148;2023-08-30T09:15:07;4.0;;;3.1;;
38220;SDS011;24023;51.280;7.148;2023-08-30T09:20:08;4.0;;;3.1;;
38220;SDS011;24023;51.280;7.148;2023-08-30T09:25:06;3.8;;;2.8;;
38220;SDS011;24023;51.280;7.148;2023-08-30T09:30:11;3.8;;;2.8;;
38220;SDS011;24023;51.280;7.148;2023-08-30T09:35:06;3.8;;;2.8;;
38220;SDS011;24023;51.280;7.148;2023-08-30T09:40:07;4.6;;;3.1;;
38220;SDS011;24023;51.280;7.148;2023-08-30T09:45:17;4.6;;;3.1;;
38220;SDS011;24023;51.280;7.148;2023-08-30T09:50:08;5.2;;;3.2;;
38220;SDS011;24023;51.280;7.148;2023-08-30T09:55:05;5.2;;;3.2;;
38220;SDS011;24023;51.280;7.148;2023-08-30T10:00:13;5.2;;;3.2;;
38220;SDS011;24023;51.280;7.148;2023-08-30T10:05:05;3.9;;;3.5;;
38220;SDS011;24023;51.280;7.148;2023-08-30T10:10:07;3.9;;;3.5;;
38220;SDS011;24023;51.280;7.148;2023-08-30T10:15:07;4.4;;;3.1;;
38220;SDS011;24023;51.280;7.148;2023-08-30T10:20:15;5.2;;;3.1;;
38220;SDS011;24023;51.280;7.148;2023-08-30T10:25:07;5.2;;;3.1;;
38220;SDS011;24023;51.280;7.148;2023-08-30T10:30:08;6.4;;;3.9;;
38220;SDS011;24023;51.280;7.148;2023-08-30T10:35:06;4.6;;;3.7;;
38220;SDS011;24023;51.280;7.148;2023-08-30T10:40:08;4.6;;;3.7;;
38220;SDS011;24023;51.280;7.148;2023-08-30T10:45:09;4.6;;;3.7;;
38220;SDS011;24023;51.280;7.148;2023-08-30T10:50:08;4.2;;;3.4;;
38220;SDS011;24023;51.280;7.148;2023-08-30T10:55:06;4.2;;;3.4;;
38220;SDS011;24023;51.280;7.148;2023-08-30T11:00:18;3.9;;;3.4;;
38220;SDS011;24023;51.280;7.148;2023-08-30T11:05:06;3.9;;;3.4;;
38220;SDS011;24023;51.280;7.148;2023-08-30T11:10:09;3.9;;;3.4;;
38220;SDS011;24023;51.280;7.148;2023-08-30T11:15:07;4.1;;;3.4;;
38220;SDS011;24023;51.280;7.148;2023-08-30T11:20:07;4.1;;;3.4;;
38220;SDS011;24023;51.280;7.148;2023-08-30T11:25:07;4.7;;;3.8;;
38220;SDS011;24023;51.280;7.148;2023-08-30T11:30:09;4.7;;;3.8;;
38220;SDS011;24023;51.280;7.148;2023-08-30T11:35:06;6.5;;;4.1;;
38220;SDS011;24023;51.280;7.148;2023-08-30T11:40:07;6.5;;;4.1;;
38220;SDS011;24023;51.280;7.148;2023-08-30T11:45:08;4.3;;;3.0;;
38220;SDS011;24023;51.280;7.148;2023-08-30T11:50:09;4.3;;;3.0;;
38220;SDS011;24023;51.280;7.148;2023-08-30T11:55:06;2.3;;;1.4;;
38220;SDS011;24023;51.280;7.148;2023-08-30T12:00:12;2.3;;;1.4;;
38220;SDS011;24023;51.280;7.148;2023-08-30T12:05:10;2.3;;;1.4;;
38220;SDS011;24023;51.280;7.148;2023-08-30T12:10:08;2.2;;;1.3;;
38220;SDS011;24023;51.280;7.148;2023-08-30T12:15:08;2.2;;;1.3;;
38220;SDS011;24023;51.280;7.148;2023-08-30T12:20:14;1.8;;;1.3;;
38220;SDS011;24023;51.280;7.148;2023-08-30T12:25:15;1.8;;;1.3;;
38220;SDS011;24023;51.280;7.148;2023-08-30T12:30:09;1.8;;;1.3;;
38220;SDS011;24023;51.280;7.148;2023-08-30T12:35:05;2.3;;;1.4;;
38220;SDS011;24023;51.280;7.148;2023-08-30T12:40:08;2.3;;;1.4;;
38220;SDS011;24023;51.280;7.148;2023-08-30T12:45:09;1.9;;;1.2;;
38220;SDS011;24023;51.280;7.148;2023-08-30T12:50:07;1.9;;;1.2;;
38220;SDS011;24023;51.280;7.148;2023-08-30T12:55:06;1.9;;;1.2;;
38220;SDS011;24023;51.280;7.148;2023-08-30T13:00:12;1.5;;;1.1;;
38220;SDS011;24023;51.280;7.148;2023-08-30T13:05:06;1.5;;;1.1;;
38220;SDS011;24023;51.280;7.148;2023-08-30T13:10:07;1.2;;;1.0;;
38220;SDS011;24023;51.280;7.148;2023-08-30T13:15:08;1.2;;;1.0;;
38220;SDS011;24023;51.280;7.148;2023-08-30T13:20:07;1.2;;;1.0;;
38220;SDS011;24023;51.280;7.148;2023-08-30T13:25:06;1.1;;;1.0;;
38220;SDS011;24023;51.280;7.148;2023-08-30T13:30:09;1.1;;;1.0;;
38220;SDS011;24023;51.280;7.148;2023-08-30T13:35:06;2.1;;;1.6;;
38220;SDS011;24023;51.280;7.148;2023-08-30T13:40:07;2.1;;;1.6;;
38220;SDS011;24023;51.280;7.148;2023-08-30T13:45:10;1.9;;;1.8;;
38220;SDS011;24023;51.280;7.148;2023-08-30T13:50:08;1.9;;;1.8;;
38220;SDS011;24023;51.280;7.148;2023-08-30T13:55:05;1.9;;;1.8;;
38220;SDS011;24023;51.280;7.148;2023-08-30T14:00:12;1.9;;;1.5;;
38220;SDS011;24023;51.280;7.148;2023-08-30T14:05:06;1.9;;;1.5;;
38220;SDS011;24023;51.280;7.148;2023-08-30T14:10:07;1.7;;;1.4;;
38220;SDS011;24023;51.280;7.148;2023-08-30T14:15:07;1.7;;;1.4;;
38220;SDS011;24023;51.280;7.148;2023-08-30T14:20:08;1.7;;;1.4;;
38220;SDS011;24023;51.280;7.148;2023-08-30T14:25:05;1.6;;;1.5;;
38220;SDS011;24023;51.280;7.148;2023-08-30T14:30:09;1.6;;;1.5;;
38220;SDS011;24023;51.280;7.148;2023-08-30T14:35:06;2.0;;;1.1;;
38220;SDS011;24023;51.280;7.148;2023-08-30T14:40:08;2.0;;;1.1;;
38220;SDS011;24023;51.280;7.148;2023-08-30T14:45:09;2.0;;;1.1;;
38220;SDS011;24023;51.280;7.148;2023-08-30T14:50:08;1.6;;;1.1;;
38220;SDS011;24023;51.280;7.148;2023-08-30T14:55:06;1.6;;;1.1;;
38220;SDS011;24023;51.280;7.148;2023-08-30T15:00:12;2.2;;;1.6;;
38220;SDS011;24023;51.280;7.148;2023-08-30T15:05:06;2.2;;;1.6;;
38220;SDS011;24023;51.280;7.148;2023-08-30T15:10:07;2.2;;;1.6;;
38220;SDS011;24023;51.280;7.148;2023-08-30T15:15:07;1.8;;;1.5;;
38220;SDS011;24023;51.280;7.148;2023-08-30T15:20:08;1.8;;;1.5;;
38220;SDS011;24023;51.280;7.148;2023-08-30T15:25:07;2.6;;;1.6;;
38220;SDS011;24023;51.280;7.148;2023-08-30T15:30:09;2.6;;;1.6;;
38220;SDS011;24023;51.280;7.148;2023-08-30T15:35:06;3.1;;;2.2;;
38220;SDS011;24023;51.280;7.148;2023-08-30T15:40:09;3.1;;;2.2;;
38220;SDS011;24023;51.280;7.148;2023-08-30T15:45:09;3.1;;;2.2;;
38220;SDS011;24023;51.280;7.148;2023-08-30T15:50:07;2.6;;;2.4;;
38220;SDS011;24023;51.280;7.148;2023-08-30T15:55:06;2.6;;;2.4;;
38220;SDS011;24023;51.280;7.148;2023-08-30T16:00:13;2.6;;;2.4;;
38220;SDS011;24023;51.280;7.148;2023-08-30T16:05:06;2.6;;;2.4;;
38220;SDS011;24023;51.280;7.148;2023-08-30T16:10:07;2.6;;;2.4;;
38220;SDS011;24023;51.280;7.148;2023-08-30T16:15:07;3.1;;;2.5;;
38220;SDS011;24023;51.280;7.148;2023-08-30T16:20:08;3.1;;;2.5;;
38220;SDS011;24023;51.280;7.148;2023-08-30T16:25:06;2.7;;;2.1;;
38220;SDS011;24023;51.280;7.148;2023-08-30T16:30:09;2.7;;;2.1;;
38220;SDS011;24023;51.280;7.148;2023-08-30T16:35:06;2.7;;;2.1;;
38220;SDS011;24023;51.280;7.148;2023-08-30T16:40:07;2.9;;;2.6;;
38220;SDS011;24023;51.280;7.148;2023-08-30T16:45:09;81.6;;;70.9;;
38220;SDS011;24023;51.280;7.148;2023-08-30T16:50:07;81.6;;;70.9;;
38220;SDS011;24023;51.280;7.148;2023-08-30T16:55:06;4.2;;;3.2;;
38220;SDS011;24023;51.280;7.148;2023-08-30T17:00:14;4.2;;;3.2;;
38220;SDS011;24023;51.280;7.148;2023-08-30T17:05:07;4.2;;;3.2;;
38220;SDS011;24023;51.280;7.148;2023-08-30T17:10:07;3.9;;;3.3;;
38220;SDS011;24023;51.280;7.148;2023-08-30T17:15:07;6.0;;;3.7;;
38220;SDS011;24023;51.280;7.148;2023-08-30T17:20:07;6.0;;;3.7;;
38220;SDS011;24023;51.280;7.148;2023-08-30T17:25:05;4.0;;;3.5;;
38220;SDS011;24023;51.280;7.148;2023-08-30T17:30:09;4.0;;;3.5;;
38220;SDS011;24023;51.280;7.148;2023-08-30T17:35:07;4.0;;;3.5;;
38220;SDS011;24023;51.280;7.148;2023-08-30T17:40:08;4.8;;;3.8;;
38220;SDS011;24023;51.280;7.148;2023-08-30T17:45:09;4.8;;;3.8;;
38220;SDS011;24023;51.280;7.148;2023-08-30T17:50:07;4.9;;;3.8;;
38220;SDS011;24023;51.280;7.148;2023-08-30T17:55:06;4.9;;;3.8;;
38220;SDS011;24023;51.280;7.148;2023-08-30T18:00:14;4.9;;;3.8;;
38220;SDS011;24023;51.280;7.148;2023-08-30T18:05:06;5.9;;;3.9;;
38220;SDS011;24023;51.280;7.148;2023-08-30T18:10:07;5.9;;;3.9;;
38220;SDS011;24023;51.280;7.148;2023-08-30T18:15:08;5.1;;;3.8;;
38220;SDS011;24023;51.280;7.148;2023-08-30T18:20:08;5.1;;;3.8;;
38220;SDS011;24023;51.280;7.148;2023-08-30T18:25:05;5.1;;;3.8;;
38220;SDS011;24023;51.280;7.148;2023-08-30T18:30:09;5.0;;;3.5;;
38220;SDS011;24023;51.280;7.148;2023-08-30T18:35:06;5.0;;;3.5;;
38220;SDS011;24023;51.280;7.148;2023-08-30T18:40:09;4.5;;;3.2;;
38220;SDS011;24023;51.280;7.148;2023-08-30T18:45:09;4.5;;;3.2;;
38220;SDS011;24023;51.280;7.148;2023-08-30T18:50:09;4.5;;;3.2;;
38220;SDS011;24023;51.280;7.148;2023-08-30T18:55:06;4.8;;;3.0;;
38220;SDS011;24023;51.280;7.148;2023-08-30T19:00:16;4.8;;;3.0;;
38220;SDS011;24023;51.280;7.148;2023-08-30T19:05:06;5.1;;;2.8;;
38220;SDS011;24023;51.280;7.148;2023-08-30T19:10:09;5.1;;;2.8;;
38220;SDS011;24023;51.280;7.148;2023-08-30T19:15:08;5.1;;;2.8;;
38220;SDS011;24023;51.280;7.148;2023-08-30T19:20:07;4.8;;;2.1;;
38220;SDS011;24023;51.280;7.148;2023-08-30T19:25:06;4.8;;;2.1;;
38220;SDS011;24023;51.280;7.148;2023-08-30T19:30:10;5.1;;;2.0;;
38220;SDS011;24023;51.280;7.148;2023-08-30T19:35:06;5.1;;;2.0;;
38220;SDS011;24023;51.280;7.148;2023-08-30T19:40:07;3.6;;;1.9;;
38220;SDS011;24023;51.280;7.148;2023-08-30T19:45:08;3.6;;;1.9;;
38220;SDS011;24023;51.280;7.148;2023-08-30T19:50:07;3.6;;;1.9;;
38220;SDS011;24023;51.280;7.148;2023-08-30T19:55:06;3.4;;;1.7;;
38220;SDS011;24023;51.280;7.148;2023-08-30T20:00:12;3.4;;;1.7;;
38220;SDS011;24023;51.280;7.148;2023-08-30T20:05:05;4.9;;;1.7;;
38220;SDS011;24023;51.280;7.148;2023-08-30T20:10:07;4.9;;;1.7;;
38220;SDS011;24023;51.280;7.148;2023-08-30T20:15:07;4.9;;;1.7;;
38220;SDS011;24023;51.280;7.148;2023-08-30T20:20:07;3.8;;;1.9;;
38220;SDS011;24023;51.280;7.148;2023-08-30T20:25:05;3.8;;;1.9;;
38220;SDS011;24023;51.280;7.148;2023-08-30T20:30:09;3.3;;;1.8;;
38220;SDS011;24023;51.280;7.148;2023-08-30T20:35:06;3.3;;;1.8;;
38220;SDS011;24023;51.280;7.148;2023-08-30T20:40:07;3.3;;;1.8;;
38220;SDS011;24023;51.280;7.148;2023-08-30T20:45:09;4.8;;;2.2;;
38220;SDS011;24023;51.280;7.148;2023-08-30T20:50:09;4.8;;;2.2;;
38220;SDS011;24023;51.280;7.148;2023-08-30T20:55:07;4.7;;;2.3;;
38220;SDS011;24023;51.280;7.148;2023-08-30T21:00:12;4.7;;;2.3;;
38220;SDS011;24023;51.280;7.148;2023-08-30T21:05:05;3.6;;;2.5;;
38220;SDS011;24023;51.280;7.148;2023-08-30T21:10:08;3.6;;;2.5;;
38220;SDS011;24023;51.280;7.148;2023-08-30T21:15:08;3.6;;;2.5;;
38220;SDS011;24023;51.280;7.148;2023-08-30T21:20:08;3.1;;;2.2;;
38220;SDS011;24023;51.280;7.148;2023-08-30T21:25:06;5.6;;;2.3;;
38220;SDS011;24023;51.280;7.148;2023-08-30T21:30:10;5.6;;;2.3;;
38220;SDS011;24023;51.280;7.148;2023-08-30T21:35:05;5.6;;;2.3;;
38220;SDS011;24023;51.280;7.148;2023-08-30T21:40:08;5.6;;;2.4;;
38220;SDS011;24023;51.280;7.148;2023-08-30T21:45:08;4.0;;;2.3;;
38220;SDS011;24023;51.280;7.148;2023-08-30T21:50:07;4.0;;;2.3;;
38220;SDS011;24023;51.280;7.148;2023-08-30T21:55:08;5.9;;;2.3;;
38220;SDS011;24023;51.280;7.148;2023-08-30T22:00:20;5.9;;;2.3;;
38220;SDS011;24023;51.280;7.148;2023-08-30T22:05:07;3.8;;;2.0;;
38220;SDS011;24023;51.280;7.148;2023-08-30T22:10:08;3.8;;;2.0;;
38220;SDS011;24023;51.280;7.148;2023-08-30T22:15:11;3.8;;;2.0;;
38220;SDS011;24023;51.280;7.148;2023-08-30T22:20:09;3.7;;;1.7;;
38220;SDS011;24023;51.280;7.148;2023-08-30T22:25:07;3.7;;;1.7;;
38220;SDS011;24023;51.280;7.148;2023-08-30T22:30:09;3.6;;;1.4;;
38220;SDS011;24023;51.280;7.148;2023-08-30T22:35:06;3.6;;;1.4;;
38220;SDS011;24023;51.280;7.148;2023-08-30T22:40:08;3.6;;;1.4;;
38220;SDS011;24023;51.280;7.148;2023-08-30T22:45:09;3.3;;;1.5;;
38220;SDS011;24023;51.280;7.148;2023-08-30T22:50:07;3.3;;;1.5;;
38220;SDS011;24023;51.280;7.148;2023-08-30T22:55:05;4.5;;;1.5;;
38220;SDS011;24023;51.280;7.148;2023-08-30T23:00:11;4.5;;;1.5;;
38220;SDS011;24023;51.280;7.148;2023-08-30T23:05:06;4.5;;;1.5;;
38220;SDS011;24023;51.280;7.148;2023-08-30T23:10:07;3.7;;;1.4;;
38220;SDS011;24023;51.280;7.148;2023-08-30T23:15:10;3.7;;;1.4;;
38220;SDS011;24023;51.280;7.148;2023-08-30T23:20:07;3.0;;;1.5;;
38220;SDS011;24023;51.280;7.148;2023-08-30T23:25:06;3.0;;;1.5;;
38220;SDS011;24023;51.280;7.148;2023-08-30T23:30:09;3.0;;;1.5;;
38220;SDS011;24023;51.280;7.148;2023-08-30T23:35:06;3.3;;;1.4;;
38220;SDS011;24023;51.280;7.148;2023-08-30T23:40:08;3.3;;;1.4;;
38220;SDS011;24023;51.280;7.148;2023-08-30T23:45:09;3.7;;;1.4;;
38220;SDS011;24023;51.280;7.148;2023-08-30T23:50:08;3.7;;;1.4;;
38220;SDS011;24023;51.280;7.148;2023-08-30T23:55:06;3.7;;;1.4;;
